createdAt,value
2023-01-08T00:01:31.639Z,28.40
2023-01-08T00:04:00.186Z,28.20
2023-01-08T00:06:28.459Z,28.10
2023-01-08T00:08:56.736Z,28.10
2023-01-08T00:11:25.108Z,28.40
2023-01-08T00:13:53.432Z,28.70
2023-01-08T00:16:21.979Z,28.50
2023-01-08T00:18:50.428Z,28.20
2023-01-08T00:21:18.986Z,28.00
2023-01-08T00:23:47.782Z,28.00
2023-01-08T00:26:16.430Z,28.40
2023-01-08T00:28:44.927Z,28.60
2023-01-08T00:31:14.363Z,28.50
2023-01-08T00:33:43.073Z,28.20
2023-01-08T00:36:14.825Z,28.00
2023-01-08T00:38:43.948Z,28.00
2023-01-08T00:41:13.937Z,28.20
2023-01-08T00:43:42.427Z,28.50
2023-01-08T00:46:10.770Z,28.40
2023-01-08T00:48:39.280Z,28.40
2023-01-08T00:51:08.795Z,28.10
2023-01-08T00:53:37.641Z,28.10
2023-01-08T00:56:08.836Z,28.10
2023-01-08T00:58:37.554Z,28.10
2023-01-08T01:01:11.827Z,28.30
2023-01-08T01:03:40.529Z,28.50
2023-01-08T01:06:09.098Z,28.10
2023-01-08T01:08:37.456Z,28.10
2023-01-08T01:11:11.621Z,28.10
2023-01-08T01:13:40.145Z,28.00
2023-01-08T01:16:09.370Z,28.20
2023-01-08T01:18:37.656Z,28.30
2023-01-08T01:21:21.743Z,28.40
2023-01-08T01:23:50.555Z,28.10
2023-01-08T01:26:20.264Z,28.00
2023-01-08T01:28:53.180Z,27.80
2023-01-08T01:31:21.999Z,27.80
2023-01-08T01:33:50.675Z,28.00
2023-01-08T01:36:20.502Z,28.10
2023-01-08T01:38:50.829Z,28.10
2023-01-08T01:41:29.937Z,27.90
2023-01-08T01:44:00.662Z,27.80
2023-01-08T01:46:39.131Z,27.70
2023-01-08T01:49:11.933Z,28.10
2023-01-08T01:51:46.381Z,28.30
2023-01-08T01:54:15.403Z,28.30
2023-01-08T01:56:44.760Z,27.90
2023-01-08T01:59:13.260Z,27.70
2023-01-08T02:01:44.031Z,27.60
2023-01-08T02:04:15.463Z,27.90
2023-01-08T02:07:10.747Z,28.20
2023-01-08T02:10:09.252Z,28.20
2023-01-08T02:12:45.333Z,27.90
2023-01-08T02:15:56.051Z,27.70
2023-01-08T02:18:36.509Z,27.50
2023-01-08T02:21:15.555Z,27.50
2023-01-08T02:24:10.878Z,27.40
2023-01-08T02:26:39.317Z,27.40
2023-01-08T02:29:21.639Z,27.10
2023-01-08T02:31:50.458Z,26.80
2023-01-08T02:34:19.141Z,26.60
2023-01-08T02:36:57.529Z,26.50
2023-01-08T02:39:32.055Z,26.60
2023-01-08T02:42:12.591Z,26.70
2023-01-08T02:44:46.972Z,26.50
2023-01-08T02:47:44.309Z,26.40
2023-01-08T02:50:19.820Z,26.30
2023-01-08T02:53:19.400Z,26.20
2023-01-08T02:55:55.842Z,26.30
2023-01-08T02:58:28.085Z,26.60
2023-01-08T03:00:56.956Z,26.40
2023-01-08T03:03:28.097Z,26.10
2023-01-08T03:06:03.611Z,25.90
2023-01-08T03:08:34.836Z,25.90
2023-01-08T03:11:10.539Z,26.00
2023-01-08T03:13:59.720Z,26.30
2023-01-08T03:16:43.391Z,26.50
2023-01-08T03:19:22.068Z,26.20
2023-01-08T03:21:52.840Z,26.00
2023-01-08T03:24:35.744Z,25.90
2023-01-08T03:27:06.730Z,25.80
2023-01-08T03:29:36.544Z,26.10
2023-01-08T03:32:10.377Z,26.10
2023-01-08T03:34:42.319Z,26.10
2023-01-08T03:37:12.144Z,25.90
2023-01-08T03:39:43.045Z,25.80
2023-01-08T03:42:15.577Z,25.70
2023-01-08T03:44:44.045Z,25.60
2023-01-08T03:47:12.685Z,25.90
2023-01-08T03:49:44.236Z,25.90
2023-01-08T03:52:29.565Z,25.90
2023-01-08T03:54:57.918Z,25.70
2023-01-08T03:57:26.527Z,25.70
2023-01-08T03:59:54.694Z,25.60
2023-01-08T04:02:23.025Z,25.70
2023-01-08T04:04:51.370Z,25.90
2023-01-08T04:07:19.558Z,26.00
2023-01-08T04:09:47.776Z,25.90
2023-01-08T04:12:16.032Z,25.70
2023-01-08T04:14:44.354Z,25.50
2023-01-08T04:17:13.958Z,25.50
2023-01-08T04:19:42.442Z,25.70
2023-01-08T04:22:11.933Z,26.00
2023-01-08T04:24:40.123Z,26.10
2023-01-08T04:27:08.370Z,25.70
2023-01-08T04:29:36.490Z,25.50
2023-01-08T04:32:04.964Z,25.50
2023-01-08T04:34:33.177Z,25.40
2023-01-08T04:37:01.344Z,25.50
2023-01-08T04:39:29.925Z,25.70
2023-01-08T04:41:58.053Z,25.70
2023-01-08T04:44:26.212Z,25.50
2023-01-08T04:46:54.434Z,25.40
2023-01-08T04:49:22.664Z,25.30
2023-01-08T04:51:51.023Z,25.30
2023-01-08T04:54:19.155Z,25.50
2023-01-08T04:56:47.482Z,25.70
2023-01-08T04:59:15.552Z,25.70
2023-01-08T05:01:44.079Z,25.50
2023-01-08T05:04:12.950Z,25.30
2023-01-08T05:06:41.164Z,25.20
2023-01-08T05:09:09.443Z,25.20
2023-01-08T05:11:37.627Z,25.50
2023-01-08T05:14:05.911Z,25.70
2023-01-08T05:16:34.158Z,25.60
2023-01-08T05:19:02.609Z,25.40
2023-01-08T05:21:30.801Z,25.30
2023-01-08T05:23:58.989Z,25.10
2023-01-08T05:26:27.206Z,25.10
2023-01-08T05:28:55.394Z,25.40
2023-01-08T05:31:23.687Z,25.50
2023-01-08T05:33:51.859Z,25.50
2023-01-08T05:36:20.017Z,25.30
2023-01-08T05:38:48.310Z,25.10
2023-01-08T05:41:16.484Z,24.90
2023-01-08T05:43:45.552Z,24.90
2023-01-08T05:46:13.768Z,25.10
2023-01-08T05:48:41.990Z,25.30
2023-01-08T05:51:10.218Z,25.30
2023-01-08T05:53:38.353Z,25.20
2023-01-08T05:56:09.491Z,25.00
2023-01-08T05:58:38.471Z,25.00
2023-01-08T06:01:12.487Z,25.00
2023-01-08T06:03:40.842Z,25.20
2023-01-08T06:06:10.633Z,25.50
2023-01-08T06:08:39.433Z,25.40
2023-01-08T06:11:11.357Z,25.20
2023-01-08T06:13:43.021Z,25.00
2023-01-08T06:16:11.928Z,24.90
2023-01-08T06:18:40.495Z,24.80
2023-01-08T06:21:09.141Z,25.00
2023-01-08T06:23:37.382Z,25.30
2023-01-08T06:26:06.118Z,25.10
2023-01-08T06:28:34.788Z,25.00
2023-01-08T06:31:04.462Z,24.90
2023-01-08T06:33:33.227Z,24.80
2023-01-08T06:36:03.029Z,24.80
2023-01-08T06:38:35.658Z,24.90
2023-01-08T06:41:08.907Z,25.00
2023-01-08T06:43:38.341Z,25.00
2023-01-08T06:46:07.874Z,24.80
2023-01-08T06:48:36.829Z,24.80
2023-01-08T06:51:05.868Z,24.70
2023-01-08T06:53:34.588Z,24.80
2023-01-08T06:56:04.711Z,24.90
2023-01-08T06:58:33.033Z,25.10
2023-01-08T07:01:01.228Z,25.00
2023-01-08T07:03:29.696Z,24.90
2023-01-08T07:05:58.057Z,25.00
2023-01-08T07:08:26.465Z,24.90
2023-01-08T07:10:55.446Z,24.80
2023-01-08T07:13:23.935Z,24.90
2023-01-08T07:15:52.190Z,25.00
2023-01-08T07:18:20.429Z,25.10
2023-01-08T07:20:52.222Z,25.10
2023-01-08T07:23:20.535Z,25.00
2023-01-08T07:25:48.797Z,25.00
2023-01-08T07:28:17.054Z,25.00
2023-01-08T07:30:45.252Z,25.00
2023-01-08T07:33:13.678Z,25.30
2023-01-08T07:35:41.936Z,25.50
2023-01-08T07:38:10.180Z,25.50
2023-01-08T07:40:39.484Z,25.40
2023-01-08T07:43:08.042Z,25.50
2023-01-08T07:45:36.333Z,25.60
2023-01-08T07:48:05.547Z,25.70
2023-01-08T07:50:33.888Z,25.90
2023-01-08T07:53:02.682Z,26.20
2023-01-08T07:55:31.827Z,26.60
2023-01-08T07:58:00.517Z,26.50
2023-01-08T08:00:28.959Z,26.50
2023-01-08T08:03:02.431Z,26.60
2023-01-08T08:05:30.870Z,26.80
2023-01-08T08:07:58.947Z,27.20
2023-01-08T08:10:27.142Z,27.80
2023-01-08T08:12:55.442Z,28.00
2023-01-08T08:15:23.639Z,28.10
2023-01-08T08:17:51.949Z,28.40
2023-01-08T08:20:20.132Z,28.60
2023-01-08T08:22:48.315Z,29.00
2023-01-08T08:25:16.535Z,29.60
2023-01-08T08:27:45.648Z,30.10
2023-01-08T08:30:14.607Z,30.40
2023-01-08T08:32:42.973Z,30.40
2023-01-08T08:35:11.228Z,30.10
2023-01-08T08:37:39.734Z,29.70
2023-01-08T08:40:08.986Z,30.10
2023-01-08T08:42:37.213Z,30.30
2023-01-08T08:45:05.981Z,31.30
2023-01-08T08:47:34.196Z,31.00
2023-01-08T08:50:02.791Z,31.20
2023-01-08T08:52:32.352Z,31.80
2023-01-08T08:55:00.855Z,32.20
2023-01-08T08:57:28.932Z,32.20
2023-01-08T08:59:57.597Z,32.00
2023-01-08T09:02:26.962Z,32.30
2023-01-08T09:04:55.269Z,32.60
2023-01-08T09:07:23.556Z,32.50
2023-01-08T09:09:51.728Z,32.30
2023-01-08T09:12:20.058Z,32.00
2023-01-08T09:14:48.326Z,31.60
2023-01-08T09:17:16.472Z,31.40
2023-01-08T09:19:44.820Z,31.40
2023-01-08T09:22:12.963Z,32.00
2023-01-08T09:24:41.402Z,31.70
2023-01-08T09:27:11.158Z,31.20
2023-01-08T09:29:39.512Z,31.30
2023-01-08T09:32:08.451Z,31.40
2023-01-08T09:34:36.927Z,31.50
2023-01-08T09:37:05.788Z,31.90
2023-01-08T09:39:36.598Z,31.50
2023-01-08T09:42:06.447Z,31.70
2023-01-08T09:44:40.910Z,31.50
2023-01-08T09:47:31.982Z,31.50
2023-01-08T09:50:05.796Z,31.50
2023-01-08T09:52:34.399Z,31.70
2023-01-08T09:55:02.791Z,32.00
2023-01-08T09:57:31.014Z,32.10
2023-01-08T09:59:59.497Z,31.50
2023-01-08T10:02:27.998Z,31.50
2023-01-08T10:05:00.217Z,31.30
2023-01-08T10:07:30.173Z,31.50
2023-01-08T10:09:58.457Z,31.70
2023-01-08T10:12:32.285Z,32.10
2023-01-08T10:15:07.417Z,32.10
2023-01-08T10:17:51.928Z,31.80
2023-01-08T10:20:23.005Z,31.60
2023-01-08T10:22:52.501Z,31.50
2023-01-08T10:25:23.748Z,31.50
2023-01-08T10:28:22.484Z,31.70
2023-01-08T10:30:52.879Z,31.70
2023-01-08T10:33:32.032Z,31.70
2023-01-08T10:36:04.970Z,31.60
2023-01-08T10:38:35.392Z,31.50
2023-01-08T10:41:07.474Z,31.50
2023-01-08T10:43:43.406Z,31.80
2023-01-08T10:46:23.816Z,32.20
2023-01-08T10:48:58.598Z,32.20
2023-01-08T10:51:29.358Z,32.00
2023-01-08T10:54:02.017Z,31.70
2023-01-08T10:56:32.177Z,31.50
2023-01-08T10:59:00.431Z,31.50
2023-01-08T11:01:31.120Z,31.60
2023-01-08T11:04:05.537Z,31.80
2023-01-08T11:06:44.505Z,31.90
2023-01-08T11:09:24.952Z,31.80
2023-01-08T11:11:53.333Z,31.80
2023-01-08T11:14:23.816Z,32.00
2023-01-08T11:16:52.225Z,31.90
2023-01-08T11:19:32.101Z,32.40
2023-01-08T11:22:06.450Z,32.50
2023-01-08T11:24:38.989Z,32.60
2023-01-08T11:27:28.470Z,32.20
2023-01-08T11:30:19.926Z,32.00
2023-01-08T11:33:13.467Z,31.60
2023-01-08T11:36:24.439Z,31.50
2023-01-08T11:38:52.781Z,31.70
2023-01-08T11:41:43.168Z,32.00
2023-01-08T11:44:11.490Z,32.20
2023-01-08T11:46:57.997Z,32.40
2023-01-08T11:49:32.568Z,32.40
2023-01-08T11:52:18.397Z,32.10
2023-01-08T11:55:08.100Z,32.50
2023-01-08T11:57:48.509Z,32.70
2023-01-08T12:00:19.954Z,32.60
2023-01-08T12:02:52.977Z,32.50
2023-01-08T12:05:58.133Z,32.10
2023-01-08T12:08:48.895Z,32.20
2023-01-08T12:11:25.910Z,32.30
2023-01-08T12:14:06.606Z,32.20
2023-01-08T12:16:45.324Z,32.40
2023-01-08T12:19:13.694Z,31.80
2023-01-08T12:21:41.764Z,31.80
2023-01-08T12:24:42.528Z,31.80
2023-01-08T12:27:56.472Z,32.00
2023-01-08T12:30:59.503Z,32.10
2023-01-08T12:33:33.556Z,32.50
2023-01-08T12:36:09.199Z,32.40
2023-01-08T12:38:43.758Z,32.50
2023-01-08T12:41:19.470Z,32.30
2023-01-08T12:44:06.987Z,32.40
2023-01-08T12:46:38.433Z,32.50
2023-01-08T12:49:08.563Z,33.00
2023-01-08T12:51:57.024Z,32.80
2023-01-08T12:54:56.831Z,32.60
2023-01-08T12:57:43.236Z,32.30
2023-01-08T13:00:22.052Z,32.50
2023-01-08T13:02:56.309Z,32.50
2023-01-08T13:05:24.540Z,32.40
2023-01-08T13:07:58.352Z,32.40
2023-01-08T13:10:58.190Z,32.50
2023-01-08T13:13:32.555Z,32.30
2023-01-08T13:16:19.725Z,32.10
2023-01-08T13:18:55.652Z,32.20
2023-01-08T13:21:38.488Z,32.80
2023-01-08T13:24:29.705Z,32.70
2023-01-08T13:27:10.268Z,32.00
2023-01-08T13:29:42.140Z,32.00
2023-01-08T13:32:35.475Z,32.10
2023-01-08T13:35:16.355Z,32.20
2023-01-08T13:37:47.029Z,32.20
2023-01-08T13:40:40.080Z,32.10
2023-01-08T13:43:13.217Z,32.00
2023-01-08T13:45:42.732Z,32.00
2023-01-08T13:48:25.695Z,31.70
2023-01-08T13:50:54.332Z,31.80
2023-01-08T13:53:23.664Z,32.30
2023-01-08T13:56:08.783Z,32.50
2023-01-08T13:58:44.880Z,32.30
2023-01-08T14:01:14.760Z,32.00
2023-01-08T14:03:48.144Z,31.80
2023-01-08T14:06:19.557Z,31.50
2023-01-08T14:09:02.561Z,31.70
2023-01-08T14:11:32.600Z,31.90
2023-01-08T14:14:00.838Z,32.00
2023-01-08T14:16:29.373Z,32.10
2023-01-08T14:19:01.972Z,31.70
2023-01-08T14:21:30.527Z,31.70
2023-01-08T14:23:59.065Z,31.80
2023-01-08T14:26:34.654Z,31.70
2023-01-08T14:29:23.376Z,31.80
2023-01-08T14:31:57.223Z,31.90
2023-01-08T14:34:31.805Z,31.80
2023-01-08T14:37:00.128Z,31.70
2023-01-08T14:39:35.862Z,31.30
2023-01-08T14:42:36.672Z,31.20
2023-01-08T14:45:21.784Z,31.30
2023-01-08T14:47:57.297Z,31.70
2023-01-08T14:50:29.714Z,31.80
2023-01-08T14:53:01.192Z,31.70
2023-01-08T14:55:31.818Z,31.50
2023-01-08T14:58:00.311Z,31.70
2023-01-08T15:00:33.523Z,31.70
2023-01-08T15:03:01.918Z,31.40
2023-01-08T15:05:33.517Z,31.60
2023-01-08T15:08:02.796Z,31.80
2023-01-08T15:10:42.071Z,31.80
2023-01-08T15:13:38.290Z,31.70
2023-01-08T15:16:18.019Z,32.20
2023-01-08T15:18:56.220Z,32.20
2023-01-08T15:21:25.104Z,31.80
2023-01-08T15:23:56.638Z,31.70
2023-01-08T15:26:25.533Z,31.80
2023-01-08T15:28:59.638Z,32.00
2023-01-08T15:31:48.468Z,31.90
2023-01-08T15:34:20.655Z,31.80
2023-01-08T15:36:49.313Z,31.80
2023-01-08T15:39:17.570Z,31.70
2023-01-08T15:41:45.740Z,31.70
2023-01-08T15:44:13.853Z,31.70
2023-01-08T15:46:42.207Z,31.80
2023-01-08T15:49:10.455Z,31.80
2023-01-08T15:51:43.384Z,31.70
2023-01-08T15:54:13.824Z,31.40
2023-01-08T15:56:42.697Z,31.20
2023-01-08T15:59:10.875Z,31.20
2023-01-08T16:01:39.521Z,31.60
2023-01-08T16:04:08.137Z,31.70
2023-01-08T16:06:36.516Z,31.50
2023-01-08T16:09:04.833Z,31.40
2023-01-08T16:11:33.171Z,31.80
2023-01-08T16:14:01.356Z,31.80
2023-01-08T16:16:29.700Z,31.80
2023-01-08T16:18:59.944Z,31.60
2023-01-08T16:21:28.391Z,31.40
2023-01-08T16:23:56.536Z,31.20
2023-01-08T16:26:24.751Z,31.20
2023-01-08T16:28:53.069Z,31.30
2023-01-08T16:31:21.277Z,31.50
2023-01-08T16:33:49.460Z,31.40
2023-01-08T16:36:17.800Z,31.40
2023-01-08T16:38:48.678Z,31.00
2023-01-08T16:41:16.946Z,30.80
2023-01-08T16:43:45.047Z,30.70
2023-01-08T16:46:15.705Z,30.80
2023-01-08T16:48:44.376Z,30.90
2023-01-08T16:51:12.624Z,30.90
2023-01-08T16:53:41.179Z,31.10
2023-01-08T16:56:10.013Z,31.20
2023-01-08T16:58:38.894Z,31.30
2023-01-08T17:01:11.764Z,31.10
2023-01-08T17:03:40.454Z,30.70
2023-01-08T17:06:11.030Z,30.40
2023-01-08T17:08:39.941Z,30.40
2023-01-08T17:11:14.370Z,30.40
2023-01-08T17:13:43.238Z,30.70
2023-01-08T17:16:14.639Z,30.60
2023-01-08T17:18:43.716Z,30.70
2023-01-08T17:21:13.553Z,30.60
2023-01-08T17:23:42.368Z,30.40
2023-01-08T17:26:14.148Z,30.40
2023-01-08T17:28:42.523Z,30.20
2023-01-08T17:31:13.178Z,30.30
2023-01-08T17:33:41.938Z,30.40
2023-01-08T17:36:12.279Z,30.50
2023-01-08T17:38:41.580Z,30.40
2023-01-08T17:41:10.329Z,30.10
2023-01-08T17:43:39.349Z,29.80
2023-01-08T17:46:08.893Z,29.60
2023-01-08T17:48:37.322Z,29.60
2023-01-08T17:51:09.655Z,30.00
2023-01-08T17:53:38.193Z,30.20
2023-01-08T17:56:06.789Z,30.00
2023-01-08T17:58:35.377Z,29.80
2023-01-08T18:01:03.821Z,29.60
2023-01-08T18:03:32.080Z,29.60
2023-01-08T18:06:06.043Z,29.80
2023-01-08T18:08:34.436Z,29.80
2023-01-08T18:11:04.033Z,29.70
2023-01-08T18:13:33.432Z,29.50
2023-01-08T18:16:10.807Z,29.40
2023-01-08T18:18:40.384Z,29.20
2023-01-08T18:21:08.678Z,29.20
2023-01-08T18:23:37.012Z,29.50
2023-01-08T18:26:07.136Z,29.60
2023-01-08T18:28:35.850Z,29.70
2023-01-08T18:31:08.131Z,29.40
2023-01-08T18:33:37.467Z,29.20
2023-01-08T18:36:11.333Z,29.10
2023-01-08T18:38:41.762Z,29.10
2023-01-08T18:41:13.927Z,29.00
2023-01-08T18:43:42.030Z,29.30
2023-01-08T18:46:10.138Z,29.20
2023-01-08T18:48:38.431Z,29.00
2023-01-08T18:51:06.735Z,28.80
2023-01-08T18:53:35.178Z,28.90
2023-01-08T18:56:03.275Z,29.10
2023-01-08T18:58:31.566Z,29.10
2023-01-08T19:01:06.896Z,29.10
2023-01-08T19:03:35.371Z,28.80
2023-01-08T19:06:03.817Z,28.80
2023-01-08T19:08:32.354Z,28.70
2023-01-08T19:11:04.511Z,28.90
2023-01-08T19:13:32.939Z,29.20
2023-01-08T19:16:08.353Z,29.40
2023-01-08T19:18:37.145Z,29.20
2023-01-08T19:21:10.599Z,28.90
2023-01-08T19:23:39.189Z,28.70
2023-01-08T19:26:09.990Z,28.70
2023-01-08T19:28:38.538Z,28.90
2023-01-08T19:31:06.874Z,29.10
2023-01-08T19:33:35.394Z,29.10
2023-01-08T19:36:05.233Z,28.90
2023-01-08T19:38:33.730Z,28.70
2023-01-08T19:41:02.127Z,28.70
2023-01-08T19:43:32.588Z,29.10
2023-01-08T19:46:10.618Z,29.20
2023-01-08T19:48:39.043Z,29.10
2023-01-08T19:51:11.318Z,28.80
2023-01-08T19:53:39.711Z,28.60
2023-01-08T19:56:13.244Z,28.50
2023-01-08T19:58:42.199Z,28.60
2023-01-08T20:01:22.358Z,28.80
2023-01-08T20:03:50.975Z,29.00
2023-01-08T20:07:53.050Z,28.80
2023-01-08T20:10:21.822Z,28.50
2023-01-08T20:12:50.019Z,28.50
2023-01-08T20:15:18.395Z,29.00
2023-01-08T20:17:46.580Z,29.20
2023-01-08T20:20:14.906Z,29.10
2023-01-08T20:22:43.264Z,28.70
2023-01-08T20:25:11.563Z,28.40
2023-01-08T20:27:39.840Z,28.40
2023-01-08T20:30:08.822Z,28.60
2023-01-08T20:32:37.843Z,28.90
2023-01-08T20:35:06.459Z,28.90
2023-01-08T20:37:34.996Z,28.60
2023-01-08T20:40:03.342Z,28.40
2023-01-08T20:42:34.260Z,28.20
2023-01-08T20:45:03.127Z,28.50
2023-01-08T20:47:31.283Z,28.70
2023-01-08T20:50:00.340Z,28.70
2023-01-08T20:52:30.496Z,28.60
2023-01-08T20:54:58.686Z,28.50
2023-01-08T20:57:27.016Z,28.30
2023-01-08T20:59:55.260Z,28.20
2023-01-08T21:05:40.185Z,28.50
2023-01-08T21:08:09.074Z,28.20
2023-01-08T21:10:37.439Z,28.50
2023-01-08T21:13:05.858Z,28.70
2023-01-08T21:15:37.300Z,28.90
2023-01-08T21:18:05.785Z,28.90
2023-01-08T21:20:33.990Z,28.50
2023-01-08T21:23:02.271Z,28.20
2023-01-08T21:25:30.950Z,28.20
2023-01-08T21:27:59.197Z,28.30
2023-01-08T21:30:27.632Z,28.60
2023-01-08T21:32:56.101Z,28.60
2023-01-08T21:35:24.345Z,28.40
2023-01-08T21:37:52.803Z,28.20
2023-01-08T21:40:21.120Z,28.20
2023-01-08T21:42:49.318Z,28.10
2023-01-08T21:45:17.690Z,28.30
2023-01-08T21:47:45.945Z,28.60
2023-01-08T21:50:14.337Z,28.60
2023-01-08T21:52:42.570Z,28.40
2023-01-08T21:55:12.875Z,28.20
2023-01-08T21:57:41.294Z,28.10
2023-01-08T22:00:10.449Z,28.00
2023-01-08T22:02:38.838Z,28.50
2023-01-08T22:05:07.750Z,28.70
2023-01-08T22:07:36.283Z,28.60
2023-01-08T22:10:06.027Z,28.20
2023-01-08T22:12:34.251Z,28.00
2023-01-08T22:15:02.511Z,28.10
2023-01-08T22:17:31.446Z,28.20
2023-01-08T22:19:59.696Z,28.30
2023-01-08T22:22:28.249Z,28.40
2023-01-08T22:24:56.682Z,28.50
2023-01-08T22:27:24.851Z,28.30
2023-01-08T22:29:53.275Z,28.20
2023-01-08T22:32:21.820Z,28.10
2023-01-08T22:34:50.062Z,28.20
2023-01-08T22:37:18.451Z,28.40
2023-01-08T22:39:47.036Z,28.70
2023-01-08T22:42:16.177Z,28.30
2023-01-08T22:44:44.517Z,28.10
2023-01-08T22:47:12.839Z,27.90
2023-01-08T22:49:41.153Z,28.10
2023-01-08T22:52:09.658Z,28.40
2023-01-08T22:54:38.850Z,28.50
2023-01-08T22:57:08.187Z,28.30
2023-01-08T22:59:36.738Z,28.10
2023-01-08T23:02:04.975Z,28.00
2023-01-08T23:04:33.426Z,28.00
2023-01-08T23:07:01.946Z,28.20
2023-01-08T23:09:30.173Z,28.20
2023-01-08T23:11:58.499Z,28.20
2023-01-08T23:14:26.940Z,28.10
2023-01-08T23:16:55.118Z,28.10
2023-01-08T23:19:23.425Z,28.00
2023-01-08T23:21:51.707Z,28.10
2023-01-08T23:24:20.171Z,28.20
2023-01-08T23:26:48.605Z,28.30
2023-01-08T23:29:16.951Z,28.20
2023-01-08T23:31:45.206Z,28.10
2023-01-08T23:34:13.638Z,27.90
2023-01-08T23:36:41.817Z,27.80
2023-01-08T23:39:11.381Z,28.00
2023-01-08T23:41:39.949Z,28.40
2023-01-08T23:44:12.397Z,28.40
2023-01-08T23:46:40.892Z,28.10
2023-01-08T23:49:09.360Z,27.90
2023-01-08T23:51:38.095Z,27.90
2023-01-08T23:54:06.244Z,28.10
2023-01-08T23:56:34.598Z,28.30
2023-01-08T23:59:03.485Z,28.30
